sensor_id;sensor_type;location;lat;lon;timestamp;P1;durP1;ratioP1;P2;durP2;ratioP2
49948;SDS011;35840;45.982;8.890;2022-10-04T00:07:36;2.97;;;1.15;;
49948;SDS011;35840;45.982;8.890;2022-10-04T00:14:43;1.50;;;1.10;;
49948;SDS011;35840;45.982;8.890;2022-10-04T00:17:11;4.20;;;0.93;;
49948;SDS011;35840;45.982;8.890;2022-10-04T00:19:44;1.20;;;0.77;;
49948;SDS011;35840;45.982;8.890;2022-10-04T00:22:14;1.30;;;1.20;;
49948;SDS011;35840;45.982;8.890;2022-10-04T00:27:33;1.33;;;1.00;;
49948;SDS011;35840;45.982;8.890;2022-10-04T00:40:27;4.18;;;1.02;;
49948;SDS011;35840;45.982;8.890;2022-10-04T00:43:08;2.50;;;0.93;;
49948;SDS011;35840;45.982;8.890;2022-10-04T00:45:57;2.55;;;1.15;;
49948;SDS011;35840;45.982;8.890;2022-10-04T00:51:30;2.20;;;1.23;;
49948;SDS011;35840;45.982;8.890;2022-10-04T00:54:05;2.92;;;1.00;;
49948;SDS011;35840;45.982;8.890;2022-10-04T00:56:51;3.83;;;1.20;;
49948;SDS011;35840;45.982;8.890;2022-10-04T01:01:55;0.80;;;0.75;;
49948;SDS011;35840;45.982;8.890;2022-10-04T01:04:30;4.07;;;1.15;;
49948;SDS011;35840;45.982;8.890;2022-10-04T01:07:19;1.25;;;0.85;;
49948;SDS011;35840;45.982;8.890;2022-10-04T01:09:52;2.78;;;1.00;;
49948;SDS011;35840;45.982;8.890;2022-10-04T01:12:30;1.15;;;0.93;;
49948;SDS011;35840;45.982;8.890;2022-10-04T01:15:13;1.73;;;1.00;;
49948;SDS011;35840;45.982;8.890;2022-10-04T01:18:07;3.40;;;1.00;;
49948;SDS011;35840;45.982;8.890;2022-10-04T01:20:39;2.45;;;1.30;;
49948;SDS011;35840;45.982;8.890;2022-10-04T01:26:49;1.83;;;0.98;;
49948;SDS011;35840;45.982;8.890;2022-10-04T01:29:09;3.40;;;0.70;;
49948;SDS011;35840;45.982;8.890;2022-10-04T01:31:39;2.88;;;1.00;;
49948;SDS011;35840;45.982;8.890;2022-10-04T01:34:11;3.25;;;1.05;;
49948;SDS011;35840;45.982;8.890;2022-10-04T01:36:40;1.27;;;1.00;;
49948;SDS011;35840;45.982;8.890;2022-10-04T01:39:07;1.90;;;1.20;;
49948;SDS011;35840;45.982;8.890;2022-10-04T01:41:38;0.98;;;0.70;;
49948;SDS011;35840;45.982;8.890;2022-10-04T01:44:15;1.52;;;1.13;;
49948;SDS011;35840;45.982;8.890;2022-10-04T01:46:48;2.45;;;0.98;;
49948;SDS011;35840;45.982;8.890;2022-10-04T01:49:18;1.33;;;1.00;;
49948;SDS011;35840;45.982;8.890;2022-10-04T01:51:56;3.22;;;1.10;;
49948;SDS011;35840;45.982;8.890;2022-10-04T01:54:30;4.85;;;1.92;;
49948;SDS011;35840;45.982;8.890;2022-10-04T01:57:34;1.83;;;0.77;;
49948;SDS011;35840;45.982;8.890;2022-10-04T02:00:05;1.83;;;1.05;;
49948;SDS011;35840;45.982;8.890;2022-10-04T02:05:55;2.70;;;1.25;;
49948;SDS011;35840;45.982;8.890;2022-10-04T02:08:16;1.20;;;0.90;;
49948;SDS011;35840;45.982;8.890;2022-10-04T02:10:50;2.58;;;1.55;;
49948;SDS011;35840;45.982;8.890;2022-10-04T02:13:20;1.35;;;0.82;;
49948;SDS011;35840;45.982;8.890;2022-10-04T02:15:49;1.63;;;1.00;;
49948;SDS011;35840;45.982;8.890;2022-10-04T02:18:17;2.15;;;1.25;;
49948;SDS011;35840;45.982;8.890;2022-10-04T02:20:46;1.00;;;0.88;;
49948;SDS011;35840;45.982;8.890;2022-10-04T02:23:16;2.70;;;1.02;;
49948;SDS011;35840;45.982;8.890;2022-10-04T02:25:45;2.20;;;0.80;;
49948;SDS011;35840;45.982;8.890;2022-10-04T02:28:12;1.40;;;0.95;;
49948;SDS011;35840;45.982;8.890;2022-10-04T02:30:41;2.28;;;1.10;;
49948;SDS011;35840;45.982;8.890;2022-10-04T02:33:33;6.28;;;1.10;;
49948;SDS011;35840;45.982;8.890;2022-10-04T02:36:08;1.70;;;0.85;;
49948;SDS011;35840;45.982;8.890;2022-10-04T02:39:19;2.58;;;0.80;;
49948;SDS011;35840;45.982;8.890;2022-10-04T02:41:30;1.27;;;1.10;;
49948;SDS011;35840;45.982;8.890;2022-10-04T02:44:00;2.83;;;0.80;;
49948;SDS011;35840;45.982;8.890;2022-10-04T02:46:56;7.22;;;1.25;;
49948;SDS011;35840;45.982;8.890;2022-10-04T02:51:53;2.85;;;1.48;;
49948;SDS011;35840;45.982;8.890;2022-10-04T02:54:28;1.70;;;1.15;;
49948;SDS011;35840;45.982;8.890;2022-10-04T02:56:59;1.75;;;0.90;;
49948;SDS011;35840;45.982;8.890;2022-10-04T02:59:26;1.92;;;0.80;;
49948;SDS011;35840;45.982;8.890;2022-10-04T03:02:00;4.10;;;1.15;;
49948;SDS011;35840;45.982;8.890;2022-10-04T03:04:31;1.42;;;1.33;;
49948;SDS011;35840;45.982;8.890;2022-10-04T03:07:03;0.98;;;0.88;;
49948;SDS011;35840;45.982;8.890;2022-10-04T03:09:32;1.13;;;0.93;;
49948;SDS011;35840;45.982;8.890;2022-10-04T03:12:02;2.45;;;0.82;;
49948;SDS011;35840;45.982;8.890;2022-10-04T03:14:30;2.38;;;1.20;;
49948;SDS011;35840;45.982;8.890;2022-10-04T03:16:58;2.35;;;0.98;;
49948;SDS011;35840;45.982;8.890;2022-10-04T03:19:29;3.42;;;1.48;;
49948;SDS011;35840;45.982;8.890;2022-10-04T03:22:01;1.48;;;0.85;;
49948;SDS011;35840;45.982;8.890;2022-10-04T03:24:36;0.75;;;0.73;;
49948;SDS011;35840;45.982;8.890;2022-10-04T03:27:16;2.05;;;0.90;;
49948;SDS011;35840;45.982;8.890;2022-10-04T03:29:46;3.78;;;1.23;;
49948;SDS011;35840;45.982;8.890;2022-10-04T03:32:15;3.80;;;0.98;;
49948;SDS011;35840;45.982;8.890;2022-10-04T03:34:50;1.27;;;0.93;;
49948;SDS011;35840;45.982;8.890;2022-10-04T03:37:20;2.10;;;0.90;;
49948;SDS011;35840;45.982;8.890;2022-10-04T03:39:48;1.92;;;1.10;;
49948;SDS011;35840;45.982;8.890;2022-10-04T03:42:19;1.88;;;1.10;;
49948;SDS011;35840;45.982;8.890;2022-10-04T03:44:52;2.53;;;1.25;;
49948;SDS011;35840;45.982;8.890;2022-10-04T03:47:32;2.83;;;0.90;;
49948;SDS011;35840;45.982;8.890;2022-10-04T03:50:02;2.30;;;1.27;;
49948;SDS011;35840;45.982;8.890;2022-10-04T03:52:38;3.47;;;0.90;;
49948;SDS011;35840;45.982;8.890;2022-10-04T03:55:09;2.40;;;1.13;;
49948;SDS011;35840;45.982;8.890;2022-10-04T03:57:39;1.52;;;1.00;;
49948;SDS011;35840;45.982;8.890;2022-10-04T04:00:06;2.30;;;1.10;;
49948;SDS011;35840;45.982;8.890;2022-10-04T04:02:43;3.88;;;1.17;;
49948;SDS011;35840;45.982;8.890;2022-10-04T04:11:00;2.58;;;1.27;;
49948;SDS011;35840;45.982;8.890;2022-10-04T04:13:36;1.20;;;1.10;;
49948;SDS011;35840;45.982;8.890;2022-10-04T04:16:11;1.95;;;1.10;;
49948;SDS011;35840;45.982;8.890;2022-10-04T04:18:40;1.83;;;1.05;;
49948;SDS011;35840;45.982;8.890;2022-10-04T04:21:10;2.15;;;0.70;;
49948;SDS011;35840;45.982;8.890;2022-10-04T04:23:44;1.17;;;1.13;;
49948;SDS011;35840;45.982;8.890;2022-10-04T04:28:43;1.60;;;1.20;;
49948;SDS011;35840;45.982;8.890;2022-10-04T04:31:17;2.38;;;1.20;;
49948;SDS011;35840;45.982;8.890;2022-10-04T04:33:56;1.15;;;0.82;;
49948;SDS011;35840;45.982;8.890;2022-10-04T04:36:29;1.75;;;1.17;;
49948;SDS011;35840;45.982;8.890;2022-10-04T04:39:17;2.47;;;1.70;;
49948;SDS011;35840;45.982;8.890;2022-10-04T04:44:47;2.47;;;1.10;;
49948;SDS011;35840;45.982;8.890;2022-10-04T04:47:20;1.27;;;0.90;;
49948;SDS011;35840;45.982;8.890;2022-10-04T04:49:54;2.33;;;1.55;;
49948;SDS011;35840;45.982;8.890;2022-10-04T04:52:25;2.53;;;1.10;;
49948;SDS011;35840;45.982;8.890;2022-10-04T04:54:54;2.83;;;1.10;;
49948;SDS011;35840;45.982;8.890;2022-10-04T04:57:21;2.80;;;1.20;;
49948;SDS011;35840;45.982;8.890;2022-10-04T04:59:49;1.65;;;1.33;;
49948;SDS011;35840;45.982;8.890;2022-10-04T05:02:28;2.35;;;1.25;;
49948;SDS011;35840;45.982;8.890;2022-10-04T05:07:46;2.92;;;1.48;;
49948;SDS011;35840;45.982;8.890;2022-10-04T05:13:00;3.28;;;1.40;;
49948;SDS011;35840;45.982;8.890;2022-10-04T05:15:33;4.00;;;1.25;;
49948;SDS011;35840;45.982;8.890;2022-10-04T05:18:11;2.20;;;1.20;;
49948;SDS011;35840;45.982;8.890;2022-10-04T05:20:50;4.20;;;1.75;;
49948;SDS011;35840;45.982;8.890;2022-10-04T05:23:19;4.43;;;1.00;;
49948;SDS011;35840;45.982;8.890;2022-10-04T05:25:46;2.97;;;1.05;;
49948;SDS011;35840;45.982;8.890;2022-10-04T05:28:15;2.05;;;1.55;;
49948;SDS011;35840;45.982;8.890;2022-10-04T05:30:48;1.98;;;1.27;;
49948;SDS011;35840;45.982;8.890;2022-10-04T05:33:19;2.35;;;1.23;;
49948;SDS011;35840;45.982;8.890;2022-10-04T05:41:05;2.25;;;1.05;;
49948;SDS011;35840;45.982;8.890;2022-10-04T05:43:37;1.35;;;0.93;;
49948;SDS011;35840;45.982;8.890;2022-10-04T05:48:44;3.05;;;1.35;;
49948;SDS011;35840;45.982;8.890;2022-10-04T05:51:18;10.70;;;1.38;;
49948;SDS011;35840;45.982;8.890;2022-10-04T05:53:56;3.05;;;1.20;;
49948;SDS011;35840;45.982;8.890;2022-10-04T06:15:55;6.88;;;1.60;;
49948;SDS011;35840;45.982;8.890;2022-10-04T06:23:50;2.05;;;1.60;;
49948;SDS011;35840;45.982;8.890;2022-10-04T06:26:23;2.50;;;1.30;;
49948;SDS011;35840;45.982;8.890;2022-10-04T06:28:59;4.03;;;1.55;;
49948;SDS011;35840;45.982;8.890;2022-10-04T06:31:36;2.72;;;1.55;;
49948;SDS011;35840;45.982;8.890;2022-10-04T06:40:15;2.00;;;1.20;;
49948;SDS011;35840;45.982;8.890;2022-10-04T06:45:34;1.60;;;1.10;;
49948;SDS011;35840;45.982;8.890;2022-10-04T06:48:22;5.00;;;1.42;;
49948;SDS011;35840;45.982;8.890;2022-10-04T07:00:14;2.67;;;1.58;;
49948;SDS011;35840;45.982;8.890;2022-10-04T07:03:00;3.53;;;1.80;;
49948;SDS011;35840;45.982;8.890;2022-10-04T07:08:50;4.30;;;1.88;;
49948;SDS011;35840;45.982;8.890;2022-10-04T07:11:15;6.20;;;1.65;;
49948;SDS011;35840;45.982;8.890;2022-10-04T07:16:26;7.43;;;2.25;;
49948;SDS011;35840;45.982;8.890;2022-10-04T07:24:41;3.47;;;1.55;;
49948;SDS011;35840;45.982;8.890;2022-10-04T07:27:11;5.00;;;1.55;;
49948;SDS011;35840;45.982;8.890;2022-10-04T07:29:42;11.63;;;4.53;;
49948;SDS011;35840;45.982;8.890;2022-10-04T07:32:16;19.50;;;6.40;;
49948;SDS011;35840;45.982;8.890;2022-10-04T07:37:44;2.78;;;1.90;;
49948;SDS011;35840;45.982;8.890;2022-10-04T07:40:23;10.35;;;2.22;;
49948;SDS011;35840;45.982;8.890;2022-10-04T07:45:26;8.35;;;2.10;;
49948;SDS011;35840;45.982;8.890;2022-10-04T07:48:09;5.65;;;2.22;;
49948;SDS011;35840;45.982;8.890;2022-10-04T07:50:40;4.00;;;2.13;;
49948;SDS011;35840;45.982;8.890;2022-10-04T07:53:17;7.22;;;1.70;;
49948;SDS011;35840;45.982;8.890;2022-10-04T07:56:00;6.63;;;1.70;;
49948;SDS011;35840;45.982;8.890;2022-10-04T07:58:36;1.58;;;1.48;;
49948;SDS011;35840;45.982;8.890;2022-10-04T08:03:47;2.75;;;1.80;;
49948;SDS011;35840;45.982;8.890;2022-10-04T08:21:04;7.85;;;2.30;;
49948;SDS011;35840;45.982;8.890;2022-10-04T08:37:23;2.65;;;1.40;;
49948;SDS011;35840;45.982;8.890;2022-10-04T09:04:55;2.75;;;1.88;;
49948;SDS011;35840;45.982;8.890;2022-10-04T09:13:04;3.15;;;1.52;;
49948;SDS011;35840;45.982;8.890;2022-10-04T09:18:49;2.67;;;0.98;;
49948;SDS011;35840;45.982;8.890;2022-10-04T09:24:36;3.45;;;1.95;;
49948;SDS011;35840;45.982;8.890;2022-10-04T09:27:11;1.50;;;1.27;;
49948;SDS011;35840;45.982;8.890;2022-10-04T09:30:11;2.70;;;1.50;;
49948;SDS011;35840;45.982;8.890;2022-10-04T10:07:02;3.97;;;1.98;;
49948;SDS011;35840;45.982;8.890;2022-10-04T10:16:02;4.82;;;1.40;;
49948;SDS011;35840;45.982;8.890;2022-10-04T10:18:52;2.42;;;1.52;;
49948;SDS011;35840;45.982;8.890;2022-10-04T10:49:18;2.78;;;1.80;;
49948;SDS011;35840;45.982;8.890;2022-10-04T10:55:24;1.80;;;1.63;;
49948;SDS011;35840;45.982;8.890;2022-10-04T11:09:54;3.40;;;1.92;;
49948;SDS011;35840;45.982;8.890;2022-10-04T11:15:31;2.63;;;2.10;;
49948;SDS011;35840;45.982;8.890;2022-10-04T11:23:37;4.88;;;2.80;;
49948;SDS011;35840;45.982;8.890;2022-10-04T11:38:09;2.75;;;2.30;;
49948;SDS011;35840;45.982;8.890;2022-10-04T11:46:49;6.20;;;3.40;;
49948;SDS011;35840;45.982;8.890;2022-10-04T11:49:37;4.97;;;3.42;;
49948;SDS011;35840;45.982;8.890;2022-10-04T11:55:16;7.07;;;3.50;;
49948;SDS011;35840;45.982;8.890;2022-10-04T12:06:34;8.20;;;4.18;;
49948;SDS011;35840;45.982;8.890;2022-10-04T12:12:19;4.65;;;3.58;;
49948;SDS011;35840;45.982;8.890;2022-10-04T12:32:03;9.55;;;5.32;;
49948;SDS011;35840;45.982;8.890;2022-10-04T12:34:41;8.95;;;6.40;;
49948;SDS011;35840;45.982;8.890;2022-10-04T12:40:24;7.60;;;4.50;;
49948;SDS011;35840;45.982;8.890;2022-10-04T12:51:00;9.02;;;4.05;;
49948;SDS011;35840;45.982;8.890;2022-10-04T12:53:53;8.35;;;4.90;;
49948;SDS011;35840;45.982;8.890;2022-10-04T12:56:36;7.95;;;4.75;;
49948;SDS011;35840;45.982;8.890;2022-10-04T13:05:32;5.65;;;4.03;;
49948;SDS011;35840;45.982;8.890;2022-10-04T13:07:58;6.50;;;4.30;;
49948;SDS011;35840;45.982;8.890;2022-10-04T13:16:04;6.05;;;4.70;;
49948;SDS011;35840;45.982;8.890;2022-10-04T13:21:41;11.32;;;5.88;;
49948;SDS011;35840;45.982;8.890;2022-10-04T13:30:23;6.75;;;4.35;;
49948;SDS011;35840;45.982;8.890;2022-10-04T13:41:31;11.40;;;7.40;;
49948;SDS011;35840;45.982;8.890;2022-10-04T13:47:11;9.25;;;6.78;;
49948;SDS011;35840;45.982;8.890;2022-10-04T13:49:56;13.35;;;8.00;;
49948;SDS011;35840;45.982;8.890;2022-10-04T13:52:38;12.88;;;6.25;;
49948;SDS011;35840;45.982;8.890;2022-10-04T14:49:14;10.05;;;5.82;;
49948;SDS011;35840;45.982;8.890;2022-10-04T14:52:02;11.70;;;5.00;;
49948;SDS011;35840;45.982;8.890;2022-10-04T14:59:55;7.05;;;5.55;;
49948;SDS011;35840;45.982;8.890;2022-10-04T15:08:09;8.10;;;5.77;;
49948;SDS011;35840;45.982;8.890;2022-10-04T15:10:48;9.30;;;6.13;;
49948;SDS011;35840;45.982;8.890;2022-10-04T15:16:12;9.88;;;5.28;;
49948;SDS011;35840;45.982;8.890;2022-10-04T15:18:49;9.65;;;5.82;;
49948;SDS011;35840;45.982;8.890;2022-10-04T15:21:51;13.85;;;7.47;;
49948;SDS011;35840;45.982;8.890;2022-10-04T15:24:29;6.43;;;5.25;;
49948;SDS011;35840;45.982;8.890;2022-10-04T15:46:49;9.40;;;5.80;;
49948;SDS011;35840;45.982;8.890;2022-10-04T15:52:39;6.45;;;5.32;;
49948;SDS011;35840;45.982;8.890;2022-10-04T16:00:20;6.45;;;4.63;;
49948;SDS011;35840;45.982;8.890;2022-10-04T16:03:07;6.07;;;4.75;;
49948;SDS011;35840;45.982;8.890;2022-10-04T16:26:00;6.25;;;4.78;;
49948;SDS011;35840;45.982;8.890;2022-10-04T16:28:32;4.90;;;4.13;;
49948;SDS011;35840;45.982;8.890;2022-10-04T16:47:38;8.60;;;4.97;;
49948;SDS011;35840;45.982;8.890;2022-10-04T16:55:55;6.70;;;5.20;;
49948;SDS011;35840;45.982;8.890;2022-10-04T16:58:40;6.60;;;4.75;;
49948;SDS011;35840;45.982;8.890;2022-10-04T17:06:48;10.50;;;5.93;;
49948;SDS011;35840;45.982;8.890;2022-10-04T17:12:01;12.43;;;8.90;;
49948;SDS011;35840;45.982;8.890;2022-10-04T17:17:08;13.25;;;8.85;;
49948;SDS011;35840;45.982;8.890;2022-10-04T17:19:49;15.18;;;7.95;;
49948;SDS011;35840;45.982;8.890;2022-10-04T17:28:21;9.00;;;7.20;;
49948;SDS011;35840;45.982;8.890;2022-10-04T17:31:14;9.32;;;6.53;;
49948;SDS011;35840;45.982;8.890;2022-10-04T17:34:01;12.00;;;5.85;;
49948;SDS011;35840;45.982;8.890;2022-10-04T17:36:49;10.15;;;6.93;;
49948;SDS011;35840;45.982;8.890;2022-10-04T17:42:14;10.32;;;6.03;;
49948;SDS011;35840;45.982;8.890;2022-10-04T17:47:55;6.03;;;5.43;;
49948;SDS011;35840;45.982;8.890;2022-10-04T17:50:47;8.70;;;4.85;;
49948;SDS011;35840;45.982;8.890;2022-10-04T17:53:40;6.93;;;4.60;;
49948;SDS011;35840;45.982;8.890;2022-10-04T17:56:35;8.88;;;5.05;;
49948;SDS011;35840;45.982;8.890;2022-10-04T17:59:09;7.75;;;5.50;;
49948;SDS011;35840;45.982;8.890;2022-10-04T18:01:42;8.30;;;5.82;;
49948;SDS011;35840;45.982;8.890;2022-10-04T18:04:22;8.73;;;6.00;;
49948;SDS011;35840;45.982;8.890;2022-10-04T18:09:41;10.60;;;6.25;;
49948;SDS011;35840;45.982;8.890;2022-10-04T18:12:23;7.80;;;5.75;;
49948;SDS011;35840;45.982;8.890;2022-10-04T18:15:14;8.73;;;5.78;;
49948;SDS011;35840;45.982;8.890;2022-10-04T18:17:49;8.43;;;6.45;;
49948;SDS011;35840;45.982;8.890;2022-10-04T18:22:46;11.60;;;6.28;;
49948;SDS011;35840;45.982;8.890;2022-10-04T18:25:18;10.98;;;5.25;;
49948;SDS011;35840;45.982;8.890;2022-10-04T18:30:50;8.68;;;5.88;;
49948;SDS011;35840;45.982;8.890;2022-10-04T18:33:23;9.90;;;6.45;;
49948;SDS011;35840;45.982;8.890;2022-10-04T18:36:14;10.20;;;6.32;;
49948;SDS011;35840;45.982;8.890;2022-10-04T18:38:44;15.07;;;6.55;;
49948;SDS011;35840;45.982;8.890;2022-10-04T18:41:23;7.70;;;6.10;;
49948;SDS011;35840;45.982;8.890;2022-10-04T18:44:13;12.07;;;6.35;;
49948;SDS011;35840;45.982;8.890;2022-10-04T18:46:42;7.93;;;5.50;;
49948;SDS011;35840;45.982;8.890;2022-10-04T18:49:14;6.13;;;5.47;;
49948;SDS011;35840;45.982;8.890;2022-10-04T18:51:50;9.27;;;6.03;;
49948;SDS011;35840;45.982;8.890;2022-10-04T18:54:27;7.97;;;5.65;;
49948;SDS011;35840;45.982;8.890;2022-10-04T18:57:15;6.85;;;5.50;;
49948;SDS011;35840;45.982;8.890;2022-10-04T19:00:25;7.53;;;5.85;;
49948;SDS011;35840;45.982;8.890;2022-10-04T19:03:14;9.65;;;6.00;;
49948;SDS011;35840;45.982;8.890;2022-10-04T19:13:59;10.30;;;7.15;;
49948;SDS011;35840;45.982;8.890;2022-10-04T19:16:53;10.75;;;6.50;;
49948;SDS011;35840;45.982;8.890;2022-10-04T19:19:32;9.82;;;6.57;;
49948;SDS011;35840;45.982;8.890;2022-10-04T19:25:20;10.93;;;6.78;;
49948;SDS011;35840;45.982;8.890;2022-10-04T19:28:09;7.85;;;6.95;;
49948;SDS011;35840;45.982;8.890;2022-10-04T19:33:32;11.15;;;7.28;;
49948;SDS011;35840;45.982;8.890;2022-10-04T19:36:14;9.40;;;7.50;;
49948;SDS011;35840;45.982;8.890;2022-10-04T19:38:51;8.85;;;6.75;;
49948;SDS011;35840;45.982;8.890;2022-10-04T19:52:42;9.95;;;6.95;;
49948;SDS011;35840;45.982;8.890;2022-10-04T20:00:30;10.50;;;6.88;;
49948;SDS011;35840;45.982;8.890;2022-10-04T20:02:58;12.95;;;7.18;;
49948;SDS011;35840;45.982;8.890;2022-10-04T20:05:25;14.95;;;7.22;;
49948;SDS011;35840;45.982;8.890;2022-10-04T20:07:56;11.30;;;7.75;;
49948;SDS011;35840;45.982;8.890;2022-10-04T20:10:32;10.40;;;7.28;;
49948;SDS011;35840;45.982;8.890;2022-10-04T20:13:18;12.40;;;7.07;;
49948;SDS011;35840;45.982;8.890;2022-10-04T20:15:55;10.52;;;7.13;;
49948;SDS011;35840;45.982;8.890;2022-10-04T20:26:06;9.95;;;6.47;;
49948;SDS011;35840;45.982;8.890;2022-10-04T20:28:36;16.15;;;7.03;;
49948;SDS011;35840;45.982;8.890;2022-10-04T20:31:07;8.82;;;6.53;;
49948;SDS011;35840;45.982;8.890;2022-10-04T20:36:05;8.82;;;6.60;;
49948;SDS011;35840;45.982;8.890;2022-10-04T20:38:45;10.95;;;6.43;;
49948;SDS011;35840;45.982;8.890;2022-10-04T20:47:37;10.52;;;6.70;;
49948;SDS011;35840;45.982;8.890;2022-10-04T20:52:45;7.72;;;5.72;;
49948;SDS011;35840;45.982;8.890;2022-10-04T20:55:35;9.70;;;6.78;;
49948;SDS011;35840;45.982;8.890;2022-10-04T20:58:03;12.23;;;6.25;;
49948;SDS011;35840;45.982;8.890;2022-10-04T21:00:50;8.93;;;6.43;;
49948;SDS011;35840;45.982;8.890;2022-10-04T21:03:19;9.35;;;7.05;;
49948;SDS011;35840;45.982;8.890;2022-10-04T21:06:00;8.25;;;6.57;;
49948;SDS011;35840;45.982;8.890;2022-10-04T21:08:34;6.13;;;5.53;;
49948;SDS011;35840;45.982;8.890;2022-10-04T21:13:39;12.15;;;6.07;;
49948;SDS011;35840;45.982;8.890;2022-10-04T21:16:08;8.25;;;6.50;;
49948;SDS011;35840;45.982;8.890;2022-10-04T21:18:35;9.80;;;6.90;;
49948;SDS011;35840;45.982;8.890;2022-10-04T21:21:02;8.45;;;6.07;;
49948;SDS011;35840;45.982;8.890;2022-10-04T21:23:32;11.00;;;6.78;;
49948;SDS011;35840;45.982;8.890;2022-10-04T21:31:13;10.55;;;5.97;;
49948;SDS011;35840;45.982;8.890;2022-10-04T21:33:40;9.40;;;6.18;;
49948;SDS011;35840;45.982;8.890;2022-10-04T21:36:06;8.52;;;5.95;;
49948;SDS011;35840;45.982;8.890;2022-10-04T21:38:33;10.73;;;6.45;;
49948;SDS011;35840;45.982;8.890;2022-10-04T21:41:00;8.93;;;6.57;;
49948;SDS011;35840;45.982;8.890;2022-10-04T21:43:27;8.95;;;7.28;;
49948;SDS011;35840;45.982;8.890;2022-10-04T21:45:53;14.25;;;6.82;;
49948;SDS011;35840;45.982;8.890;2022-10-04T21:48:20;9.25;;;6.25;;
49948;SDS011;35840;45.982;8.890;2022-10-04T21:50:49;8.02;;;5.95;;
49948;SDS011;35840;45.982;8.890;2022-10-04T21:53:16;7.25;;;5.65;;
49948;SDS011;35840;45.982;8.890;2022-10-04T21:55:43;6.20;;;5.60;;
49948;SDS011;35840;45.982;8.890;2022-10-04T21:58:10;10.15;;;5.95;;
49948;SDS011;35840;45.982;8.890;2022-10-04T22:00:37;8.00;;;5.78;;
49948;SDS011;35840;45.982;8.890;2022-10-04T22:03:04;11.98;;;5.68;;
49948;SDS011;35840;45.982;8.890;2022-10-04T22:05:30;7.90;;;5.95;;
49948;SDS011;35840;45.982;8.890;2022-10-04T22:07:57;9.23;;;6.00;;
49948;SDS011;35840;45.982;8.890;2022-10-04T22:10:24;8.52;;;6.10;;
49948;SDS011;35840;45.982;8.890;2022-10-04T22:12:51;7.93;;;5.30;;
49948;SDS011;35840;45.982;8.890;2022-10-04T22:15:23;14.82;;;6.28;;
49948;SDS011;35840;45.982;8.890;2022-10-04T22:17:50;12.23;;;6.38;;
49948;SDS011;35840;45.982;8.890;2022-10-04T22:20:17;9.82;;;5.55;;
49948;SDS011;35840;45.982;8.890;2022-10-04T22:22:44;13.73;;;6.03;;
49948;SDS011;35840;45.982;8.890;2022-10-04T22:25:15;9.48;;;6.53;;
49948;SDS011;35840;45.982;8.890;2022-10-04T22:27:43;8.15;;;5.75;;
49948;SDS011;35840;45.982;8.890;2022-10-04T22:30:17;7.88;;;6.00;;
49948;SDS011;35840;45.982;8.890;2022-10-04T22:32:49;10.18;;;5.95;;
49948;SDS011;35840;45.982;8.890;2022-10-04T22:35:17;8.23;;;5.63;;
49948;SDS011;35840;45.982;8.890;2022-10-04T22:37:45;6.22;;;5.20;;
49948;SDS011;35840;45.982;8.890;2022-10-04T22:40:20;6.47;;;5.20;;
49948;SDS011;35840;45.982;8.890;2022-10-04T22:42:51;6.35;;;5.40;;
49948;SDS011;35840;45.982;8.890;2022-10-04T22:45:21;6.88;;;6.00;;
49948;SDS011;35840;45.982;8.890;2022-10-04T22:47:53;7.30;;;5.05;;
49948;SDS011;35840;45.982;8.890;2022-10-04T22:50:26;6.45;;;5.65;;
49948;SDS011;35840;45.982;8.890;2022-10-04T22:52:55;8.07;;;5.47;;
49948;SDS011;35840;45.982;8.890;2022-10-04T22:55:21;10.52;;;6.57;;
49948;SDS011;35840;45.982;8.890;2022-10-04T22:57:48;11.48;;;6.32;;
49948;SDS011;35840;45.982;8.890;2022-10-04T23:00:15;6.75;;;5.57;;
49948;SDS011;35840;45.982;8.890;2022-10-04T23:02:42;8.90;;;6.00;;
49948;SDS011;35840;45.982;8.890;2022-10-04T23:05:18;7.72;;;5.90;;
49948;SDS011;35840;45.982;8.890;2022-10-04T23:07:45;7.65;;;4.85;;
49948;SDS011;35840;45.982;8.890;2022-10-04T23:10:14;8.40;;;5.80;;
49948;SDS011;35840;45.982;8.890;2022-10-04T23:12:43;11.45;;;5.15;;
49948;SDS011;35840;45.982;8.890;2022-10-04T23:15:15;10.60;;;6.05;;
49948;SDS011;35840;45.982;8.890;2022-10-04T23:17:44;8.23;;;6.10;;
49948;SDS011;35840;45.982;8.890;2022-10-04T23:20:18;14.18;;;6.40;;
49948;SDS011;35840;45.982;8.890;2022-10-04T23:22:46;9.52;;;7.22;;
49948;SDS011;35840;45.982;8.890;2022-10-04T23:25:19;9.20;;;6.40;;
49948;SDS011;35840;45.982;8.890;2022-10-04T23:27:51;6.95;;;6.25;;
49948;SDS011;35840;45.982;8.890;2022-10-04T23:30:20;7.90;;;6.57;;
49948;SDS011;35840;45.982;8.890;2022-10-04T23:32:49;10.27;;;5.88;;
49948;SDS011;35840;45.982;8.890;2022-10-04T23:35:18;11.38;;;6.93;;
49948;SDS011;35840;45.982;8.890;2022-10-04T23:37:49;9.43;;;7.35;;
49948;SDS011;35840;45.982;8.890;2022-10-04T23:40:18;8.02;;;6.18;;
49948;SDS011;35840;45.982;8.890;2022-10-04T23:42:47;11.70;;;6.50;;
49948;SDS011;35840;45.982;8.890;2022-10-04T23:45:25;10.68;;;6.97;;
49948;SDS011;35840;45.982;8.890;2022-10-04T23:47:52;10.00;;;6.68;;
49948;SDS011;35840;45.982;8.890;2022-10-04T23:50:22;7.72;;;5.72;;
49948;SDS011;35840;45.982;8.890;2022-10-04T23:52:52;7.63;;;6.38;;
49948;SDS011;35840;45.982;8.890;2022-10-04T23:55:24;7.38;;;5.88;;
49948;SDS011;35840;45.982;8.890;2022-10-04T23:57:54;7.13;;;6.40;;
